Luthersville, Georgia
Current Conditions -  °F | °C
As of 7:15 AM on Wednesday 28 Jan 2015 (Local Time) from KCCO Reporting Station
Clear Clear  
Wind Chill: 25°   Ceiling: Unl
Heat Index: 32°   Visibility: 10mi
Dew Point: 28°   Wind: 8mph
Humidity: 84%   Direction: 360°N
Pressure: 30.21"   Gusts: NA
Location:  33.21°N, 84.74°W
Report Text: KCCO 281215Z AUTO 36007KT 10SM CLR 00/M02 A3021 RMK AO2 T00021022
Loading
Personal Weather Stations






























Interactive Weather Map New forecast layout! Learn more

10-Day Weather Forecast

Advertisements
Track Severe Weather on mobile